Rochelle, IL

3:23 PM CST en Noviembre 24, 2014 (GMT -0600)
K9GPC | Change Station
CLOSE
Current Station
Estación meteorológica personal
Location: Rochelle, IL
Altura: 840 ft
Estaciones meteorológicas cercanas

Alt 840 ft 41.94 °N, 89.08 °W | Updated 2 seconds ago

Niebla
Niebla
27.6 ° F
Sensación térmica 17 ° F
N
13.2
Viento Variable Viento desde Oeste
Gusts 22.8 mph

Hoy
Alta -- | Baja -- ° F
--% Posibilidad de precipitaciones
Ayer
Alta -- | Baja -- ° F
Precip. -- pul
6:56 AM 4:28 PM
Creciente, 7% visible
Presión 29.55 pul
Visibilidad 2.5 Millas
Nubes Muy nublado 1300 ft
Muy nublado 1900 ft
Nublado 2800 ft
Vientos helados 17 ° F
Punto de rocío 11 ° F
Humedad 49%
Precipitaciones 0.24 pul
Espesor de la nieve No disponible.
UV 0 de una escala de 12
Polen .10 de una escala de 12
Calidad del aire No disponible.
Flu Activity No disponible.
METAR KRPJ 242115Z AUTO 26024G30KT 2 1/2SM BR BKN013 BKN019 OVC028 M03/M05 A2955 RMK AO2 T10351050

More Conditions Fewer Conditions

Presión 29.55 pul
Visibilidad 2.5 Millas
Nubes Muy nublado 1300 ft
Muy nublado 1900 ft
Nublado 2800 ft
Vientos helados 17 ° F
Punto de rocío 11 ° F
Humedad 49%
Precipitaciones 0.24 pul
Espesor de la nieve No disponible.
UV 0 de una escala de 12
Polen .10 de una escala de 12
Calidad del aire No disponible.
Flu Activity No disponible.
METAR KRPJ 242115Z AUTO 26024G30KT 2 1/2SM BR BKN013 BKN019 OVC028 M03/M05 A2955 RMK AO2 T10351050

More Conditions Fewer Conditions

10-Day Weather Forecast

Almanac

Astronomía

Nov. 24, 2014 Salida Puesta
Hora real
Crepúsculo civil
Crepúsculo náutico
Crepúsculo astronómico
Luna
Horas de luz
Horas de luz
Tomorrow will be .
, % of the Moon is Illuminated

Extremos de hoy

Máximos del estado Bajos del estado

Community

WunderPhotos

Upload Photos

1,773,414 ¡fotos cargadas!

WunderBlogs® & News

Nearby

Calidad del aire

  Calidad del aire Índice AQ Contaminante
Not available.

Grosos de nieve

Estación Profundido Altura

Actividad de terremotos

Ciudad Distance Mag. Tiempo y dato
Magnitud mínima muestra es 2,5.

Temperaturas de aguas costeras

Lugar Temperatura

Estaciones meteorológicas cercanas